Terminal Aerodrome Forecast
Issued by NWS Caribou, ME

Home | Current Version | Previous Version | Text Only | Print | Product List | Glossary On
Versions: 1 2 3 4 5 6 7 8 9 10 11 12
000
FTUS41 KCAR 011120
TAFBGR
TAF
KBGR 011120Z 0112/0212 00000KT P6SM SKC
     FM011700 20006KT P6SM SCT100 OVC200
     FM020100 20007KT P6SM BKN030
     FM020300 20006KT 2SM -SN OVC015
     FM020400 21006KT 1SM -SN OVC015
     FM021000 VRB03KT 3SM -SN OVC030=

USA.gov is the U.S. government's official web portal to all federal, state and local government web resources and services.